Time;durP1;ratioP1;P1;durP2;ratioP2;P2;SDS_P1;SDS_P2;PMS_P1;PMS_P2;Temp;Humidity;BMP_temperature;BMP_pressure;BME280_temperature;BME280_humidity;BME280_pressure;Samples;Min_cycle;Max_cycle;Signal;HPM_P1;HPM_P2
2022/11/26 00:00:59;;;;;;;10.88;5.03;;;;;;;2.01;89.30;97424.84;4964653;28;20082;-59
2022/11/26 00:03:26;;;;;;;9.27;4.60;;;;;;;2.09;89.73;97440.50;4964068;28;20109;-56
2022/11/26 00:05:55;;;;;;;12.38;5.88;;;;;;;2.11;89.67;97443.75;4965921;28;20058;-57
2022/11/26 00:08:31;;;;;;;9.65;4.88;;;;;;;2.12;88.79;97434.44;4964508;28;20058;-56
2022/11/26 00:10:59;;;;;;;8.07;3.90;;;;;;;1.85;88.66;97400.91;4966275;28;20141;-56
2022/11/26 00:13:27;;;;;;;7.57;3.65;;;;;;;2.11;89.61;97426.53;4965645;28;20086;-55
2022/11/26 00:15:55;;;;;;;8.35;4.20;;;;;;;2.15;87.91;97433.03;4965981;28;20062;-56
2022/11/26 00:18:25;;;;;;;7.97;3.90;;;;;;;2.11;87.58;97432.00;4965993;28;20414;-57
2022/11/26 00:20:59;;;;;;;5.93;3.53;;;;;;;2.21;88.46;97448.19;4965709;28;20182;-58
2022/11/26 00:23:27;;;;;;;8.63;4.30;;;;;;;1.87;86.78;97387.72;4965640;28;20146;-56
2022/11/26 00:25:58;;;;;;;10.10;4.75;;;;;;;2.32;86.23;97444.13;4966052;28;20109;-57
2022/11/26 00:28:29;;;;;;;7.97;4.60;;;;;;;2.14;85.69;97445.06;4966038;28;20137;-58
2022/11/26 00:30:59;;;;;;;9.90;4.40;;;;;;;2.03;87.40;97452.66;4965664;28;20090;-58
2022/11/26 00:33:27;;;;;;;7.68;4.35;;;;;;;2.09;87.05;97442.44;4965715;28;20082;-58
2022/11/26 00:36:10;;;;;;;9.52;4.63;;;;;;;2.12;89.25;97452.78;4964339;28;20098;-59
2022/11/26 00:38:37;;;;;;;12.75;5.80;;;;;;;2.21;89.40;97448.19;4965628;28;20121;-57
2022/11/26 00:41:11;;;;;;;9.13;5.10;;;;;;;1.85;88.36;97398.97;4965588;28;20528;-55
2022/11/26 00:43:38;;;;;;;12.60;5.65;;;;;;;2.21;88.26;97456.38;4964096;28;20506;-55
2022/11/26 00:46:05;;;;;;;12.52;5.93;;;;;;;2.18;88.29;97465.19;4965544;28;20059;-56
2022/11/26 00:48:31;;;;;;;12.68;5.28;;;;;;;2.12;88.34;97471.91;4965706;28;20145;-58
2022/11/26 00:50:58;;;;;;;8.98;4.25;;;;;;;1.77;89.81;97464.44;4965595;28;20489;-58
2022/11/26 00:53:25;;;;;;;12.02;5.05;;;;;;;1.31;89.46;97399.00;4965223;28;20090;-58
2022/11/26 00:55:51;;;;;;;9.75;5.45;;;;;;;1.77;89.35;97465.22;4965674;28;20191;-57
2022/11/26 00:58:25;;;;;;;12.20;5.53;;;;;;;1.86;88.54;97465.31;4965688;28;20047;-58
2022/11/26 01:00:53;;;;;;;10.95;5.65;;;;;;;1.49;89.74;97448.03;4965413;28;20581;-55
2022/11/26 01:03:20;;;;;;;13.57;6.80;;;;;;;1.23;90.69;97405.94;4965524;28;20050;-56
2022/11/26 01:05:56;;;;;;;10.63;5.80;;;;;;;1.60;89.72;97465.00;4965464;28;20138;-56
2022/11/26 01:08:32;;;;;;;9.45;4.93;;;;;;;1.70;88.78;97466.75;4965224;28;20462;-56
2022/11/26 01:11:02;;;;;;;12.95;5.40;;;;;;;1.29;88.84;97414.88;4965836;28;20079;-55
2022/11/26 01:13:29;;;;;;;12.07;5.60;;;;;;;1.65;90.25;97464.09;4965803;28;20141;-58
2022/11/26 01:15:58;;;;;;;14.48;7.50;;;;;;;1.58;91.11;97473.50;4968602;28;20058;-56
2022/11/26 01:18:26;;;;;;;10.20;5.03;;;;;;;1.55;91.65;97465.94;4967571;28;20055;-57
2022/11/26 01:20:52;;;;;;;7.35;3.97;;;;;;;1.58;91.64;97466.44;4968874;28;20051;-56
2022/11/26 01:23:19;;;;;;;8.60;3.95;;;;;;;1.46;92.54;97459.56;4969076;28;20145;-58
2022/11/26 01:25:46;;;;;;;7.80;4.03;;;;;;;1.50;92.70;97449.66;4967716;28;20058;-58
2022/11/26 01:28:16;;;;;;;8.95;5.28;;;;;;;1.08;92.16;97398.06;4968834;28;20050;-58
2022/11/26 01:30:44;;;;;;;9.75;4.65;;;;;;;0.82;92.35;97345.09;4968959;28;20141;-56
2022/11/26 01:33:10;;;;;;;9.90;5.07;;;;;;;1.38;92.22;97435.69;4969036;28;20071;-59
2022/11/26 01:35:37;;;;;;;8.70;3.85;;;;;;;1.40;93.31;97438.94;4968979;28;20137;-57
2022/11/26 01:38:04;;;;;;;8.57;4.50;;;;;;;1.47;91.30;97439.34;4968628;28;20069;-56
2022/11/26 01:40:58;;;;;;;10.52;4.22;;;;;;;1.42;90.66;97447.59;4969263;28;20050;-55
2022/11/26 01:43:35;;;;;;;16.40;6.22;;;;;;;0.96;91.24;97395.03;4956794;28;20125;-58
2022/11/26 01:46:02;;;;;;;12.25;6.22;;;;;;;1.34;90.14;97444.78;4949572;28;20518;-57
2022/11/26 01:48:32;;;;;;;9.15;5.18;;;;;;;1.30;89.40;97450.03;4949484;28;20058;-55
2022/11/26 01:51:00;;;;;;;10.88;5.03;;;;;;;0.83;91.29;97395.81;4949695;29;20205;-55
2022/11/26 01:53:45;;;;;;;12.65;6.15;;;;;;;1.20;93.34;97450.22;4949066;28;20152;-57
2022/11/26 01:56:30;;;;;;;10.93;5.78;;;;;;;0.69;92.69;97351.34;4947467;29;20063;-56
2022/11/26 01:59:11;;;;;;;10.45;5.13;;;;;;;1.20;92.89;97444.75;4948902;28;20137;-56
2022/11/26 02:01:38;;;;;;;11.18;4.57;;;;;;;0.64;93.37;97386.88;4947639;29;20650;-55
2022/11/26 02:04:16;;;;;;;11.20;4.80;;;;;;;1.21;92.97;97457.31;4949179;28;20055;-57
2022/11/26 02:06:47;;;;;;;9.75;4.85;;;;;;;1.28;93.94;97457.69;4948897;28;20150;-56
2022/11/26 02:09:14;;;;;;;7.25;3.75;;;;;;;0.77;93.53;97369.75;4948883;29;20055;-57
2022/11/26 02:11:41;;;;;;;9.27;4.32;;;;;;;1.34;92.39;97461.94;4948985;28;20573;-58
2022/11/26 02:14:16;;;;;;;10.73;4.97;;;;;;;1.31;91.68;97467.22;4948814;28;20497;-56
2022/11/26 02:17:04;;;;;;;28.98;14.75;;;;;;;1.35;90.57;97477.22;4947276;29;20059;-55
2022/11/26 02:19:59;;;;;;;10.85;5.70;;;;;;;1.25;90.39;97485.59;4947261;29;20182;-55
2022/11/26 02:22:44;;;;;;;11.65;5.85;;;;;;;1.17;91.33;97478.09;4948119;28;20059;-56
2022/11/26 02:25:21;;;;;;;10.93;5.30;;;;;;;1.12;92.06;97470.00;4948229;28;20079;-58
2022/11/26 02:27:59;;;;;;;13.40;5.72;;;;;;;1.03;93.09;97458.16;4948400;28;20142;-56
2022/11/26 02:30:30;;;;;;;12.00;6.18;;;;;;;0.76;92.99;97413.66;4948311;28;20113;-57
2022/11/26 02:33:02;;;;;;;12.80;6.05;;;;;;;1.06;92.62;97476.66;4948255;28;20154;-57
2022/11/26 02:35:32;;;;;;;14.53;5.27;;;;;;;0.58;94.73;97491.63;4948636;28;20577;-57
2022/11/26 02:38:04;;;;;;;15.45;7.50;;;;;;;0.62;96.45;97489.91;4946922;29;20055;-57
2022/11/26 02:40:31;;;;;;;16.00;6.90;;;;;;;0.66;95.70;97466.44;4948745;28;20518;-57
2022/11/26 02:42:57;;;;;;;18.75;7.07;;;;;;;0.60;94.95;97462.13;4955994;28;20082;-57
2022/11/26 02:45:29;;;;;;;20.00;7.97;;;;;;;0.97;96.13;97489.34;4967153;28;20055;-57
2022/11/26 02:47:59;;;;;;;35.05;12.95;;;;;;;1.06;95.89;97498.47;4966013;28;20485;-55
2022/11/26 02:50:32;;;;;;;54.47;19.95;;;;;;;1.16;95.03;97492.84;4967683;28;20082;-57
2022/11/26 02:53:00;;;;;;;42.60;18.48;;;;;;;1.23;93.49;97493.25;4967260;28;20453;-57
2022/11/26 02:55:32;;;;;;;29.42;12.90;;;;;;;1.18;93.09;97495.28;4967370;28;20050;-55
2022/11/26 02:57:59;;;;;;;16.23;7.93;;;;;;;1.13;93.65;97503.53;4965961;28;20141;-55
2022/11/26 03:00:26;;;;;;;11.77;6.20;;;;;;;0.40;93.11;97375.28;4967662;28;20046;-57
2022/11/26 03:03:22;;;;;;;9.10;4.50;;;;;;;1.27;92.81;97510.66;4965817;28;20522;-57
2022/11/26 03:06:02;;;;;;;7.50;4.18;;;;;;;1.20;92.51;97507.50;4967473;28;20061;-57
2022/11/26 03:08:30;;;;;;;9.60;4.85;;;;;;;1.15;92.64;97506.78;4967001;28;20086;-57
2022/11/26 03:10:57;;;;;;;11.02;5.32;;;;;;;1.06;93.88;97493.00;4966150;28;20050;-57
2022/11/26 03:13:24;;;;;;;12.65;6.18;;;;;;;0.61;94.04;97431.06;4965370;28;20066;-59
2022/11/26 03:15:51;;;;;;;18.10;7.30;;;;;;;1.04;94.45;97497.16;4966995;28;20062;-55
2022/11/26 03:18:18;;;;;;;17.35;6.88;;;;;;;0.61;93.20;97409.28;4966880;28;20047;-55
2022/11/26 03:20:44;;;;;;;12.18;5.82;;;;;;;1.02;94.64;97507.56;4965442;28;20150;-56
2022/11/26 03:23:11;;;;;;;13.00;4.78;;;;;;;1.00;95.19;97507.84;4966381;28;20121;-57
2022/11/26 03:25:38;;;;;;;7.97;4.82;;;;;;;1.07;94.97;97505.56;4966749;28;20320;-57
2022/11/26 03:28:05;;;;;;;13.45;5.63;;;;;;;0.98;94.36;97512.00;4966855;28;20164;-56
2022/11/26 03:30:31;;;;;;;12.43;5.78;;;;;;;0.92;93.66;97507.69;4966624;28;20054;-57
2022/11/26 03:32:58;;;;;;;10.10;4.90;;;;;;;0.95;95.03;97518.84;4966373;28;20450;-57
2022/11/26 03:35:24;;;;;;;9.27;4.47;;;;;;;0.94;93.91;97509.03;4966829;28;20154;-57
2022/11/26 03:37:51;;;;;;;12.23;7.10;;;;;;;1.09;92.50;97538.78;4964050;28;20082;-55
2022/11/26 03:40:18;;;;;;;9.93;5.00;;;;;;;1.03;93.35;97526.34;4965041;28;20082;-57
2022/11/26 03:42:44;;;;;;;8.40;4.40;;;;;;;0.99;94.44;97530.78;4960743;28;20059;-57
2022/11/26 03:45:11;;;;;;;8.88;4.25;;;;;;;0.74;94.02;97492.19;4947401;28;20063;-57
2022/11/26 03:47:38;;;;;;;8.43;4.00;;;;;;;0.53;92.99;97477.25;4947042;28;20098;-57
2022/11/26 03:50:06;;;;;;;11.57;4.88;;;;;;;1.00;91.65;97539.75;4947225;28;20118;-57
2022/11/26 03:52:33;;;;;;;9.50;4.55;;;;;;;0.97;92.70;97538.44;4947000;28;20059;-55
2022/11/26 03:54:59;;;;;;;10.07;4.90;;;;;;;0.98;92.56;97548.25;4947147;28;20113;-58
2022/11/26 03:57:26;;;;;;;8.20;4.85;;;;;;;0.89;92.45;97557.38;4946873;28;20055;-57
2022/11/26 03:59:52;;;;;;;13.52;5.93;;;;;;;0.61;93.68;97566.53;4947049;28;20142;-55
2022/11/26 04:02:19;;;;;;;12.05;6.07;;;;;;;0.27;93.40;97512.22;4946704;28;20055;-54
2022/11/26 04:04:46;;;;;;;11.90;6.22;;;;;;;0.74;93.28;97566.63;4946678;28;20059;-56
2022/11/26 04:07:12;;;;;;;10.60;5.95;;;;;;;0.75;92.08;97680.00;4946384;28;20125;-57
2022/11/26 04:09:39;;;;;;;12.15;6.05;;;;;;;0.74;91.72;97566.63;4946925;28;20055;-57
2022/11/26 04:12:06;;;;;;;10.10;5.85;;;;;;;0.67;92.30;97571.63;4945194;28;20134;-56
2022/11/26 04:14:32;;;;;;;14.70;6.78;;;;;;;0.65;92.16;97573.81;4946556;28;20150;-55
2022/11/26 04:16:59;;;;;;;15.23;7.47;;;;;;;0.52;94.10;97574.53;4946518;28;20062;-57
2022/11/26 04:19:25;;;;;;;14.30;6.20;;;;;;;0.43;93.85;97562.69;4946501;28;20506;-55
2022/11/26 04:21:52;;;;;;;9.52;4.78;;;;;;;0.46;96.71;97581.16;4946358;28;20051;-55
2022/11/26 04:24:19;;;;;;;10.27;4.88;;;;;;;0.50;95.99;97544.06;4946597;28;20055;-57
2022/11/26 04:26:45;;;;;;;9.95;5.80;;;;;;;0.58;94.52;97573.38;4946407;28;20055;-57
2022/11/26 04:29:12;;;;;;;10.23;5.78;;;;;;;0.50;94.75;97571.31;4946561;28;20426;-54
2022/11/26 04:31:39;;;;;;;11.70;5.93;;;;;;;0.57;95.86;97577.19;4929092;29;20134;-58
2022/11/26 04:34:05;;;;;;;11.43;6.28;;;;;;;0.66;96.38;97580.91;4946274;28;20059;-55
2022/11/26 04:36:32;;;;;;;10.55;5.80;;;;;;;0.70;96.41;97581.09;4946352;28;20055;-56
2022/11/26 04:38:59;;;;;;;14.55;7.13;;;;;;;0.78;95.67;97585.91;4946408;28;20059;-55
2022/11/26 04:41:25;;;;;;;14.23;7.80;;;;;;;0.88;95.21;97589.31;4946036;28;20566;-57
2022/11/26 04:43:52;;;;;;;13.32;7.47;;;;;;;0.83;94.96;97605.75;4960718;28;20497;-57
2022/11/26 04:46:18;;;;;;;10.63;5.55;;;;;;;0.77;95.51;97596.03;4965336;28;20597;-55
2022/11/26 04:48:45;;;;;;;10.98;5.28;;;;;;;0.67;96.05;97608.97;4966287;28;20133;-57
2022/11/26 04:51:12;;;;;;;14.95;7.60;;;;;;;0.55;96.71;97601.22;4969346;28;20514;-54
2022/11/26 04:53:38;;;;;;;13.23;8.10;;;;;;;0.67;96.05;97598.06;4970029;28;20047;-56
2022/11/26 04:56:05;;;;;;;19.23;7.75;;;;;;;0.60;96.41;97592.16;4969593;28;20100;-56
2022/11/26 04:58:32;;;;;;;18.13;7.40;;;;;;;0.61;96.62;97594.59;4969382;28;20051;-54
2022/11/26 05:00:59;;;;;;;11.68;5.72;;;;;;;0.63;95.83;97595.13;4968074;28;20109;-56
2022/11/26 05:03:26;;;;;;;11.23;5.22;;;;;;;0.71;95.24;97596.38;4969694;28;20054;-56
2022/11/26 05:05:53;;;;;;;13.85;4.82;;;;;;;0.46;95.83;97608.41;4969240;28;20078;-58
2022/11/26 05:08:19;;;;;;;9.80;5.05;;;;;;;0.30;96.94;97606.97;4968772;28;20089;-56
2022/11/26 05:10:46;;;;;;;7.93;4.65;;;;;;;0.20;98.24;97615.28;4969023;28;20137;-56
2022/11/26 05:13:13;;;;;;;9.95;5.05;;;;;;;0.36;98.39;97608.56;4967524;28;20098;-57
2022/11/26 05:15:39;;;;;;;12.00;5.45;;;;;;;0.07;96.96;97547.06;4969118;28;20085;-56
2022/11/26 05:18:06;;;;;;;10.35;6.03;;;;;;;0.50;97.25;97614.91;4968833;28;20110;-56
2022/11/26 05:20:32;;;;;;;10.35;5.32;;;;;;;0.49;98.03;97616.00;4969159;28;20157;-56
2022/11/26 05:22:59;;;;;;;10.98;5.53;;;;;;;0.36;98.08;97608.56;4967446;28;20133;-56
2022/11/26 05:25:26;;;;;;;14.32;6.78;;;;;;;0.21;96.96;97562.41;4969301;28;20085;-56
2022/11/26 05:27:52;;;;;;;13.90;6.70;;;;;;;0.45;95.41;97614.97;4968716;28;20050;-56
2022/11/26 05:30:19;;;;;;;17.75;7.03;;;;;;;0.65;95.56;97633.78;4969283;28;20911;-56
2022/11/26 05:32:46;;;;;;;17.40;9.68;;;;;;;0.62;94.91;97637.09;4968619;28;20128;-55
2022/11/26 05:35:12;;;;;;;24.13;13.32;;;;;;;0.61;93.96;97643.66;4968822;28;20085;-57
2022/11/26 05:37:39;;;;;;;28.98;16.10;;;;;;;0.59;93.66;97634.97;4968579;28;20054;-56
2022/11/26 05:40:07;;;;;;;33.63;18.55;;;;;;;0.66;93.18;97651.78;4968958;28;20130;-57
2022/11/26 05:42:34;;;;;;;51.95;23.05;;;;;;;0.72;92.18;97658.78;4964811;28;20122;-56
2022/11/26 05:45:01;;;;;;;30.15;15.82;;;;;;;0.72;92.81;97661.50;4949538;28;20102;-57
2022/11/26 05:47:27;;;;;;;25.20;11.55;;;;;;;0.37;94.76;97674.72;4947744;29;20067;-55
2022/11/26 05:49:54;;;;;;;21.92;11.13;;;;;;;0.19;96.21;97679.00;4949270;28;20665;-56
2022/11/26 05:52:21;;;;;;;20.60;11.23;;;;;;;0.39;96.29;97673.38;4947637;29;20086;-56
2022/11/26 05:54:48;;;;;;;24.30;11.93;;;;;;;0.55;96.77;97672.09;4949370;28;20126;-56
2022/11/26 05:57:14;;;;;;;37.60;18.67;;;;;;;0.68;95.88;97671.34;4949107;28;20341;-57
2022/11/26 05:59:41;;;;;;;56.20;25.70;;;;;;;0.83;93.87;97676.63;4948869;28;20106;-55
2022/11/26 06:02:08;;;;;;;22.70;12.57;;;;;;;0.66;91.94;97689.94;4948689;28;20146;-56
2022/11/26 06:04:35;;;;;;;17.77;9.10;;;;;;;0.52;93.75;97699.91;4948028;29;20492;-54
2022/11/26 06:07:02;;;;;;;32.17;17.35;;;;;;;0.76;93.94;97694.47;4947636;28;20130;-56
2022/11/26 06:09:28;;;;;;;32.17;19.52;;;;;;;0.40;92.96;97598.69;4949317;28;20055;-55
2022/11/26 06:11:55;;;;;;;24.20;14.25;;;;;;;1.12;92.17;97701.84;4948737;28;20117;-56
2022/11/26 06:14:21;;;;;;;32.08;15.20;;;;;;;0.66;92.01;97608.16;4947459;29;20138;-56
2022/11/26 06:16:48;;;;;;;25.02;13.10;;;;;;;1.25;91.67;97668.41;4948581;28;20081;-60
2022/11/26 06:19:15;;;;;;;29.50;15.20;;;;;;;1.58;89.55;97698.47;4947628;29;20065;-54
2022/11/26 06:21:41;;;;;;;29.90;15.27;;;;;;;1.35;89.71;97642.88;4947496;28;20530;-56
2022/11/26 06:24:08;;;;;;;26.73;14.35;;;;;;;1.89;88.86;97691.41;4949001;28;20139;-56
2022/11/26 06:26:35;;;;;;;39.88;21.65;;;;;;;1.97;88.36;97698.94;4948548;28;20142;-57
2022/11/26 06:29:02;;;;;;;29.45;15.50;;;;;;;1.93;88.29;97670.59;4948539;28;20103;-54
2022/11/26 06:31:29;;;;;;;17.92;10.30;;;;;;;1.88;88.29;97652.34;4948090;28;20585;-55
2022/11/26 06:33:55;;;;;;;17.73;10.18;;;;;;;-0.72;88.42;97351.84;4954381;28;20046;-57
2022/11/26 06:36:23;;;;;;;16.30;9.20;;;;;;;1.72;88.27;97644.72;4959984;28;20137;-60
2022/11/26 06:38:49;;;;;;;15.60;8.25;;;;;;;2.29;87.98;97701.63;4967231;28;20047;-56
2022/11/26 06:41:16;;;;;;;16.63;8.88;;;;;;;2.24;87.88;97694.34;4967584;28;20054;-53
2022/11/26 06:43:42;;;;;;;31.17;20.08;;;;;;;2.44;87.98;97682.22;4966746;28;20133;-56
2022/11/26 06:46:10;;;;;;;18.73;10.80;;;;;;;2.77;86.70;97708.34;4967293;28;20046;-57
2022/11/26 06:48:38;;;;;;;16.98;8.60;;;;;;;2.87;86.46;97708.16;4967450;28;20137;-59
2022/11/26 06:51:11;;;;;;;20.33;9.38;;;;;;;3.01;86.05;97708.97;4966980;28;20145;-59
2022/11/26 06:53:38;;;;;;;15.48;7.25;;;;;;;3.16;85.05;97703.19;4967292;28;20186;-57
2022/11/26 06:56:09;;;;;;;15.65;6.70;;;;;;;3.27;85.10;97707.31;4967249;28;20059;-60
2022/11/26 06:58:45;;;;;;;13.00;6.55;;;;;;;3.35;84.66;97706.56;4965820;28;20059;-56
2022/11/26 07:01:17;;;;;;;15.10;6.85;;;;;;;3.60;84.11;97700.53;4967180;28;20133;-57
2022/11/26 07:03:45;;;;;;;18.60;8.97;;;;;;;3.72;82.59;97703.50;4966808;28;20845;-57
2022/11/26 07:06:26;;;;;;;20.63;10.70;;;;;;;4.01;82.27;97706.66;4966758;28;20134;-60
2022/11/26 07:08:55;;;;;;;29.10;13.02;;;;;;;4.15;81.48;97701.09;4966874;28;20134;-60
2022/11/26 07:11:23;;;;;;;26.90;13.23;;;;;;;3.83;80.70;97650.09;4966330;28;20082;-56
2022/11/26 07:13:50;;;;;;;29.70;15.25;;;;;;;3.71;79.75;97595.06;4964958;28;20051;-54
2022/11/26 07:16:17;;;;;;;38.13;18.55;;;;;;;4.69;78.94;97706.22;4966532;28;20141;-58
2022/11/26 07:18:50;;;;;;;50.53;25.33;;;;;;;4.94;77.55;97718.44;4966259;28;20054;-57
2022/11/26 07:21:17;;;;;;;55.20;27.30;;;;;;;5.07;76.34;97701.84;4964659;28;20047;-56
2022/11/26 07:23:45;;;;;;;62.10;31.75;;;;;;;5.24;75.77;97701.88;4966109;28;20430;-60
2022/11/26 07:26:12;;;;;;;64.53;31.75;;;;;;;5.40;75.10;97707.72;4965854;28;20050;-56
2022/11/26 07:28:40;;;;;;;27.05;13.88;;;;;;;5.30;73.80;97677.81;4963526;28;20139;-57
2022/11/26 07:31:10;;;;;;;29.25;15.15;;;;;;;5.56;72.84;97712.47;4966427;28;20499;-56
2022/11/26 07:33:43;;;;;;;40.13;19.83;;;;;;;4.11;72.62;97472.59;4965179;28;20576;-60
2022/11/26 07:36:15;;;;;;;20.25;11.90;;;;;;;5.91;71.95;97705.06;4966498;28;20055;-61
2022/11/26 07:38:42;;;;;;;26.60;14.05;;;;;;;5.12;71.80;97560.84;4965826;28;20129;-60
2022/11/26 07:41:12;;;;;;;28.23;13.93;;;;;;;6.21;71.95;97695.81;4964683;28;20503;-62
2022/11/26 07:43:40;;;;;;;20.13;11.30;;;;;;;6.30;72.26;97704.84;4307237;28;10000850;-59
2022/11/26 07:46:10;;;;;;;18.48;9.65;;;;;;;6.50;71.22;97701.41;5005089;28;20062;-57
2022/11/26 07:48:39;;;;;;;12.32;6.60;;;;;;;6.46;70.07;97678.44;4985583;28;20054;-58
2022/11/26 07:51:07;;;;;;;14.38;7.68;;;;;;;6.02;71.43;97703.59;4985132;28;20062;-57
2022/11/26 07:53:35;;;;;;;11.98;7.10;;;;;;;6.21;72.16;97698.56;4982834;28;20101;-60
2022/11/26 07:56:05;;;;;;;10.70;6.63;;;;;;;6.40;71.93;97695.44;4985287;28;20077;-59
2022/11/26 07:58:32;;;;;;;10.90;5.97;;;;;;;6.55;71.69;97698.47;4984993;28;20058;-56
2022/11/26 08:01:07;;;;;;;10.50;5.85;;;;;;;5.99;72.09;97630.00;4984872;28;20042;-61
2022/11/26 08:03:40;;;;;;;8.57;5.30;;;;;;;6.70;71.04;97695.16;4983582;28;20496;-56
2022/11/26 08:06:08;;;;;;;;;;;;;;;6.88;70.18;97685.72;4985606;28;20145;-61
2022/11/26 08:08:35;;;;;;;10.63;4.78;;;;;;;7.14;70.08;97683.66;4985133;28;19953;-60
2022/11/26 08:11:03;;;;;;;6.75;4.53;;;;;;;7.42;69.47;97690.28;4985189;28;20116;-61
2022/11/26 08:13:30;;;;;;;8.93;4.80;;;;;;;7.60;68.64;97686.25;4984334;28;20088;-56
2022/11/26 08:15:56;;;;;;;8.80;5.40;;;;;;;7.48;68.85;97622.78;4984988;28;20058;-62
2022/11/26 08:18:23;;;;;;;12.25;6.50;;;;;;;7.80;68.06;97648.81;4983808;28;20058;-58
2022/11/26 08:20:56;;;;;;;14.30;5.80;;;;;;;8.15;65.84;97646.53;4985302;28;20086;-59
2022/11/26 08:23:24;;;;;;;9.98;6.25;;;;;;;8.33;64.82;97639.72;4983819;28;20584;-59
2022/11/26 08:25:51;;;;;;;8.77;5.25;;;;;;;8.36;64.84;97697.00;4984523;28;20116;-61
2022/11/26 08:28:38;;;;;;;9.50;5.50;;;;;;;8.11;65.81;97696.06;4985340;28;20897;-60
2022/11/26 08:31:08;;;;;;;8.88;5.28;;;;;;;8.56;64.29;97696.16;4983787;28;20497;-58
2022/11/26 08:33:35;;;;;;;10.52;5.90;;;;;;;8.47;64.15;97626.41;4984717;28;20054;-60
2022/11/26 08:36:02;;;;;;;6.82;5.10;;;;;;;8.88;63.54;97648.31;4984387;28;20132;-59
2022/11/26 08:38:35;;;;;;;7.13;5.28;;;;;;;9.38;61.78;97690.25;4984540;28;20140;-58
2022/11/26 08:41:09;;;;;;;7.82;4.72;;;;;;;9.49;61.08;97694.16;4965664;28;21286;-60
2022/11/26 08:43:37;;;;;;;9.18;5.35;;;;;;;9.52;59.75;97678.81;4964178;28;20050;-62
2022/11/26 08:46:24;;;;;;;9.38;5.05;;;;;;;9.72;58.84;97695.25;4965312;28;20050;-60
2022/11/26 08:48:54;;;;;;;7.07;4.25;;;;;;;9.38;58.94;97701.28;4975279;28;20046;-58
2022/11/26 08:51:21;;;;;;;6.47;3.85;;;;;;;9.56;58.34;97663.97;4973253;28;20509;-59
2022/11/26 08:53:48;;;;;;;7.43;4.70;;;;;;;9.95;58.19;97690.81;4981503;28;20058;-64
2022/11/26 08:56:15;;;;;;;7.43;4.60;;;;;;;10.23;58.35;97691.69;4980907;28;20090;-60
2022/11/26 08:58:47;;;;;;;7.05;5.25;;;;;;;10.41;57.82;97684.69;4982145;28;20054;-57
2022/11/26 09:01:20;;;;;;;9.03;6.90;;;;;;;10.53;57.76;97687.38;4982710;28;20061;-64
2022/11/26 09:03:49;;;;;;;7.05;4.72;;;;;;;10.33;56.37;97666.25;4983688;28;20313;-60
2022/11/26 09:06:18;;;;;;;15.90;10.13;;;;;;;10.36;56.69;97643.41;4983690;28;20129;-59
2022/11/26 09:11:33;;;;;;;6.45;4.93;;;;;;;10.97;55.27;97685.38;4987506;28;20058;-60
2022/11/26 09:14:01;;;;;;;7.43;4.80;;;;;;;10.93;54.21;97689.22;4981997;28;20150;-60
2022/11/26 09:16:28;;;;;;;7.20;3.88;;;;;;;11.05;55.23;97675.28;4982466;28;20051;-57
2022/11/26 09:18:54;;;;;;;6.80;4.05;;;;;;;11.38;53.42;97686.81;4982827;28;20510;-59
2022/11/26 09:21:22;;;;;;;7.15;4.75;;;;;;;11.47;51.66;97687.41;4982899;28;20535;-55
2022/11/26 09:23:48;;;;;;;6.95;3.20;;;;;;;11.36;50.63;97634.47;4984843;28;20133;-62
2022/11/26 09:26:15;;;;;;;5.75;4.40;;;;;;;11.95;49.87;97686.94;4984226;28;20553;-58
2022/11/26 09:28:42;;;;;;;5.70;4.22;;;;;;;11.85;47.95;97665.34;4982873;28;20043;-62
2022/11/26 09:31:08;;;;;;;3.88;3.03;;;;;;;12.06;47.90;97693.56;4984080;28;20054;-57
2022/11/26 09:33:35;;;;;;;2.95;2.65;;;;;;;12.22;48.04;97685.97;4984351;28;20476;-57
2022/11/26 09:36:06;;;;;;;5.22;4.00;;;;;;;11.25;47.05;97607.66;4986880;28;20140;-58
2022/11/26 09:38:35;;;;;;;6.68;2.47;;;;;;;11.58;47.15;97656.00;4987909;28;20160;-58
2022/11/26 09:41:04;;;;;;;6.13;3.47;;;;;;;11.99;47.48;97668.41;4987515;28;20502;-58
2022/11/26 09:43:49;;;;;;;3.55;2.60;;;;;;;10.24;46.58;97361.03;4987894;28;20184;-57
2022/11/26 09:46:28;;;;;;;5.25;2.85;;;;;;;12.10;46.96;97641.66;4968321;28;20150;-57
2022/11/26 09:49:13;;;;;;;3.25;2.38;;;;;;;12.14;46.88;97653.66;4967994;28;20081;-57
2022/11/26 09:51:45;;;;;;;3.42;2.72;;;;;;;12.13;46.18;97646.50;4987867;28;20141;-58
2022/11/26 09:54:20;;;;;;;8.35;3.65;;;;;;;12.17;46.31;97650.16;4987824;28;20145;-57
2022/11/26 09:56:59;;;;;;;2.90;2.63;;;;;;;11.92;45.92;97598.84;4987097;28;20124;-58
2022/11/26 09:59:28;;;;;;;12.10;8.65;;;;;;;12.46;46.05;97646.75;4987714;28;20517;-58
2022/11/26 10:01:55;;;;;;;6.47;3.97;;;;;;;12.61;45.29;97643.09;4987237;28;20153;-57
2022/11/26 10:04:28;;;;;;;4.82;3.30;;;;;;;12.73;45.08;97640.13;4986874;28;20137;-57
2022/11/26 10:07:07;;;;;;;5.15;3.60;;;;;;;12.91;45.49;97632.91;4987678;28;20548;-57
2022/11/26 10:10:04;;;;;;;4.60;3.58;;;;;;;13.16;44.32;97642.50;4985849;28;20422;-55
2022/11/26 10:12:43;;;;;;;3.35;2.78;;;;;;;13.24;44.08;97633.09;4984822;28;20058;-57
2022/11/26 10:15:44;;;;;;;2.58;2.38;;;;;;;13.30;43.66;97631.59;4966733;28;20086;-56
2022/11/26 10:20:17;;;;;;;3.38;3.00;;;;;;;13.46;44.09;97618.34;5057991;28;20394;-65
2022/11/26 10:23:02;;;;;;;3.53;3.22;;;;;;;13.31;43.70;97633.19;5023737;28;20050;-55
2022/11/26 10:25:37;;;;;;;4.95;2.90;;;;;;;13.46;43.42;97623.91;5019849;28;20145;-54
2022/11/26 10:28:18;;;;;;;3.63;2.92;;;;;;;13.27;43.26;97621.22;5019388;28;20140;-58
2022/11/26 10:30:45;;;;;;;4.03;3.35;;;;;;;12.81;44.70;97619.63;5021619;28;20473;-55
2022/11/26 10:33:17;;;;;;;4.10;2.80;;;;;;;13.03;43.08;97626.38;5022042;28;20140;-53
2022/11/26 10:35:45;;;;;;;3.30;2.70;;;;;;;12.91;43.67;97580.09;5020064;28;20085;-55
2022/11/26 10:38:12;;;;;;;2.78;2.47;;;;;;;13.17;43.57;97582.91;5019153;28;20108;-56
2022/11/26 10:40:39;;;;;;;3.13;2.50;;;;;;;13.43;42.89;97607.16;5019210;28;20149;-58
2022/11/26 10:43:08;;;;;;;3.78;2.80;;;;;;;13.64;43.51;97608.25;5018857;28;20053;-54
2022/11/26 10:45:44;;;;;;;5.55;3.92;;;;;;;13.96;42.89;97610.69;5019644;28;20049;-58
2022/11/26 10:48:31;;;;;;;3.90;3.50;;;;;;;14.03;42.22;97613.53;5019452;28;20053;-58
2022/11/26 10:51:29;;;;;;;3.00;2.60;;;;;;;13.98;42.05;97605.50;5019580;28;20081;-58
2022/11/26 10:54:04;;;;;;;2.97;2.67;;;;;;;13.98;41.08;97599.94;5021667;28;20401;-57
2022/11/26 10:56:30;;;;;;;4.15;2.90;;;;;;;13.82;42.35;97602.94;5021255;28;20133;-55
2022/11/26 10:59:02;;;;;;;7.93;3.28;;;;;;;13.94;43.39;97599.88;5021720;28;20057;-58
2022/11/26 11:01:37;;;;;;;3.70;3.30;;;;;;;13.76;42.71;97598.06;5021822;28;20131;-54
2022/11/26 11:04:24;;;;;;;3.13;2.80;;;;;;;13.73;42.71;97596.03;5020115;28;20568;-55
2022/11/26 11:06:50;;;;;;;3.30;3.00;;;;;;;13.89;42.71;97593.88;5020928;28;20081;-56
2022/11/26 11:09:26;;;;;;;6.07;4.20;;;;;;;13.84;42.39;97600.56;5021695;28;20105;-55
2022/11/26 11:12:16;;;;;;;5.13;3.35;;;;;;;13.50;40.93;97596.91;5020748;28;20139;-59
2022/11/26 11:14:45;;;;;;;2.35;2.13;;;;;;;12.20;42.52;97593.88;5003584;28;20045;-55
2022/11/26 11:17:18;;;;;;;3.63;3.20;;;;;;;12.28;43.82;97595.63;5021141;28;20058;-55
2022/11/26 11:19:45;;;;;;;3.90;3.05;;;;;;;12.23;43.12;97534.81;5020669;28;20057;-59
2022/11/26 11:22:21;;;;;;;3.20;2.80;;;;;;;13.03;43.08;97599.38;5021150;28;20053;-56
2022/11/26 11:24:48;;;;;;;3.05;2.78;;;;;;;13.27;42.76;97584.25;5021393;28;20054;-56
2022/11/26 11:27:40;;;;;;;3.03;2.72;;;;;;;13.54;41.32;97586.66;5020907;28;20049;-59
2022/11/26 11:30:22;;;;;;;2.50;2.30;;;;;;;13.70;41.64;97592.03;5013218;28;20123;-55
2022/11/26 11:32:50;;;;;;;2.67;2.45;;;;;;;13.87;40.53;97582.28;5007380;28;20058;-59
2022/11/26 11:35:22;;;;;;;22.05;20.10;;;;;;;13.83;40.18;97587.03;5005322;28;20057;-57
2022/11/26 11:37:52;;;;;;;3.05;2.47;;;;;;;13.14;40.22;97583.66;5005915;28;20136;-59
2022/11/26 11:40:24;;;;;;;2.53;2.33;;;;;;;12.61;41.31;97593.06;5005593;28;20532;-56
2022/11/26 11:42:58;;;;;;;5.15;3.80;;;;;;;12.97;41.57;97594.47;5007232;28;20072;-59
2022/11/26 11:45:42;;;;;;;3.67;2.80;;;;;;;13.13;41.34;97590.41;5007309;28;20076;-58
2022/11/26 11:48:23;;;;;;;2.90;2.40;;;;;;;13.26;41.74;97591.00;5007372;28;20113;-59
2022/11/26 11:51:06;;;;;;;3.15;2.40;;;;;;;13.19;41.63;97555.53;5007833;28;20057;-56
2022/11/26 11:54:14;;;;;;;4.57;3.28;;;;;;;13.21;41.85;97589.34;5007248;28;20487;-59